createdAt,value
2022-10-21T09:08:16.898Z,3.97
2022-10-21T09:10:57.585Z,4.50
2022-10-21T09:13:40.334Z,4.00
2022-10-21T09:16:14.549Z,3.80
2022-10-21T09:18:52.733Z,4.67
2022-10-21T09:21:30.205Z,4.33
2022-10-21T09:24:07.464Z,5.03
2022-10-21T09:26:41.753Z,4.63
2022-10-21T09:29:26.413Z,4.17
2022-10-21T09:32:02.078Z,4.23
2022-10-21T09:34:41.979Z,4.83
2022-10-21T09:37:17.745Z,5.03
2022-10-21T09:39:52.234Z,5.37
2022-10-21T09:42:35.743Z,3.97
2022-10-21T09:45:20.050Z,4.60
2022-10-21T09:47:52.907Z,5.20
2022-10-21T09:50:21.389Z,5.33
2022-10-21T09:52:57.815Z,5.97
2022-10-21T09:55:28.276Z,5.73
2022-10-21T09:58:00.282Z,5.37
2022-10-21T10:00:47.153Z,6.87
2022-10-21T10:03:31.099Z,6.93
2022-10-21T10:05:59.465Z,5.87
2022-10-21T10:08:37.697Z,7.10
2022-10-21T10:11:15.540Z,6.60
2022-10-21T10:13:45.517Z,7.33
2022-10-21T10:16:17.062Z,7.23
2022-10-21T10:18:46.223Z,7.70
2022-10-21T10:21:15.445Z,7.90
2022-10-21T10:23:48.958Z,7.33
2022-10-21T10:26:27.595Z,7.37
2022-10-21T10:28:58.783Z,7.03
2022-10-21T10:31:31.165Z,7.03
2022-10-21T10:34:03.529Z,7.50
2022-10-21T10:36:34.589Z,7.50
2022-10-21T10:39:04.694Z,7.63
2022-10-21T10:41:38.303Z,7.03
2022-10-21T10:44:20.997Z,7.47
2022-10-21T10:46:55.727Z,6.37
2022-10-21T10:49:24.459Z,7.30
2022-10-21T10:52:07.877Z,7.30
2022-10-21T10:54:36.803Z,7.13
2022-10-21T10:57:10.407Z,7.20
2022-10-21T10:59:43.266Z,7.27
2022-10-21T11:02:28.963Z,6.63
2022-10-21T11:05:19.571Z,6.13
2022-10-21T11:07:51.055Z,7.70
2022-10-21T11:10:31.482Z,7.00
2022-10-21T11:13:01.960Z,6.00
2022-10-21T11:15:42.427Z,6.60
2022-10-21T11:18:25.605Z,6.97
2022-10-21T11:21:01.395Z,6.53
2022-10-21T11:23:43.393Z,6.57
2022-10-21T11:26:19.701Z,5.83
2022-10-21T11:28:59.220Z,5.73
2022-10-21T11:31:59.644Z,5.20
2022-10-21T11:34:38.260Z,5.70
2022-10-21T11:37:19.332Z,5.93
2022-10-21T11:39:54.211Z,5.73
2022-10-21T11:42:26.803Z,5.67
2022-10-21T11:45:11.131Z,5.23
2022-10-21T11:47:47.078Z,5.27
2022-10-21T11:50:22.365Z,5.00
2022-10-21T11:53:12.669Z,5.10
2022-10-21T11:55:48.080Z,5.23
2022-10-21T11:58:30.917Z,5.03
2022-10-21T12:01:15.904Z,5.50
2022-10-21T12:04:11.266Z,4.80
2022-10-21T12:06:46.454Z,5.30
2022-10-21T12:09:20.190Z,4.90
2022-10-21T12:11:53.493Z,4.93
2022-10-21T12:14:31.103Z,4.10
2022-10-21T12:17:06.380Z,4.80
2022-10-21T12:19:35.605Z,3.93
2022-10-21T12:22:04.027Z,5.10
2022-10-21T12:24:44.940Z,3.30
2022-10-21T12:27:20.279Z,4.83
2022-10-21T12:30:02.303Z,4.27
2022-10-21T12:32:40.494Z,4.43
2022-10-21T12:35:14.137Z,3.93
2022-10-21T12:38:05.657Z,3.60
2022-10-21T12:40:40.103Z,4.00
2022-10-21T12:43:19.954Z,3.93
2022-10-21T12:46:01.917Z,3.20
2022-10-21T12:48:36.458Z,3.03
2022-10-21T12:51:07.499Z,3.40
2022-10-21T12:53:39.375Z,3.00
2022-10-21T12:56:08.664Z,2.87
2022-10-21T12:58:41.355Z,3.47
2022-10-21T13:01:39.871Z,3.00
2022-10-21T13:04:48.862Z,2.97
2022-10-21T13:07:34.409Z,2.70
2022-10-21T13:10:29.503Z,2.30
2022-10-21T13:13:36.490Z,2.63
2022-10-21T13:16:30.331Z,2.70
2022-10-21T13:19:03.297Z,2.63
2022-10-21T13:21:40.509Z,2.60
2022-10-21T13:24:22.072Z,2.37
2022-10-21T13:26:52.513Z,3.00
2022-10-21T13:29:31.590Z,3.00
2022-10-21T13:32:28.476Z,2.47
2022-10-21T13:35:00.145Z,2.83
2022-10-21T13:37:32.858Z,2.70
2022-10-21T13:40:03.412Z,2.30
2022-10-21T13:42:38.040Z,3.03
2022-10-21T13:45:17.241Z,2.63
2022-10-21T13:47:45.981Z,2.70
2022-10-21T13:50:19.501Z,2.80
2022-10-21T13:52:48.879Z,2.87
2022-10-21T13:55:21.497Z,2.57
2022-10-21T13:57:51.515Z,2.80
2022-10-21T14:00:22.063Z,2.63
2022-10-21T14:02:51.413Z,2.53
2022-10-21T14:05:30.883Z,3.07
2022-10-21T14:08:00.737Z,2.40
2022-10-21T14:10:30.556Z,2.43
2022-10-21T14:15:41.639Z,2.30
2022-10-21T14:18:09.854Z,2.37
2022-10-21T14:20:39.140Z,2.57
2022-10-21T14:23:18.900Z,5.70
2022-10-21T14:25:48.791Z,2.47
2022-10-21T14:28:18.949Z,2.60
2022-10-21T14:30:47.141Z,2.40
2022-10-21T14:33:20.602Z,2.43
2022-10-21T14:36:06.360Z,2.30
2022-10-21T14:38:41.053Z,1.57
2022-10-21T14:41:14.766Z,2.33
2022-10-21T14:43:45.354Z,2.60
2022-10-21T14:46:13.422Z,2.30
2022-10-21T14:48:47.471Z,2.20
2022-10-21T14:51:21.270Z,2.83
2022-10-21T14:53:55.844Z,2.70
2022-10-21T14:56:29.884Z,2.10
2022-10-21T14:58:59.906Z,3.67
2022-10-21T15:01:27.971Z,1.90
2022-10-21T15:03:57.798Z,2.33
2022-10-21T15:06:27.604Z,2.77
2022-10-21T15:09:17.037Z,2.20
2022-10-21T15:11:45.901Z,1.57
2022-10-21T15:14:33.193Z,2.00
2022-10-21T15:17:04.651Z,2.07
2022-10-21T15:19:44.164Z,1.53
2022-10-21T15:22:34.774Z,2.83
2022-10-21T15:25:08.903Z,2.27
2022-10-21T15:27:42.591Z,2.13
2022-10-21T15:30:17.477Z,2.13
2022-10-21T15:32:45.502Z,2.30
2022-10-21T15:35:15.432Z,2.47
2022-10-21T15:37:43.333Z,2.47
2022-10-21T15:40:13.183Z,1.90
2022-10-21T15:42:41.174Z,2.37
2022-10-21T15:45:15.208Z,1.90
2022-10-21T15:47:43.310Z,1.80
2022-10-21T15:50:14.991Z,1.40
2022-10-21T15:52:43.011Z,1.80
2022-10-21T15:55:12.888Z,2.40
2022-10-21T15:57:41.930Z,2.37
2022-10-21T16:00:17.591Z,1.90
2022-10-21T16:02:46.029Z,1.63
2022-10-21T16:05:14.613Z,1.70
2022-10-21T16:07:42.832Z,1.60
2022-10-21T16:10:20.237Z,2.20
2022-10-21T16:12:48.774Z,2.20
2022-10-21T16:15:18.680Z,1.73
2022-10-21T16:17:48.723Z,1.30
2022-10-21T16:20:18.762Z,1.53
2022-10-21T16:22:46.651Z,1.80
2022-10-21T16:25:16.334Z,1.73
2022-10-21T16:27:55.766Z,1.50
2022-10-21T16:30:26.438Z,2.23
2022-10-21T16:32:54.475Z,2.07
2022-10-21T16:35:23.038Z,1.30
2022-10-21T16:37:51.840Z,1.20
2022-10-21T16:40:24.326Z,1.70
2022-10-21T16:42:53.092Z,1.40
2022-10-21T16:45:22.949Z,1.60
2022-10-21T16:47:53.166Z,1.70
2022-10-21T16:50:23.586Z,1.60
2022-10-21T16:52:51.609Z,1.60
2022-10-21T16:55:21.019Z,1.93
2022-10-21T16:57:48.896Z,1.53
2022-10-21T17:00:18.081Z,1.80
2022-10-21T17:02:48.958Z,2.00
2022-10-21T17:05:17.017Z,1.77
2022-10-21T17:07:44.891Z,1.80
2022-10-21T17:10:13.130Z,2.10
2022-10-21T17:12:42.681Z,2.00
2022-10-21T17:15:15.000Z,1.57
2022-10-21T17:17:43.065Z,1.43
2022-10-21T17:20:11.971Z,1.67
2022-10-21T17:22:39.846Z,1.70
2022-10-21T17:25:08.347Z,2.00
2022-10-21T17:27:36.443Z,2.77
2022-10-21T17:30:06.652Z,1.97
2022-10-21T17:32:34.491Z,2.17
2022-10-21T17:35:02.928Z,2.60
2022-10-21T17:37:31.316Z,2.00
2022-10-21T17:39:59.414Z,2.33
2022-10-21T17:42:27.354Z,1.97
2022-10-21T17:44:55.133Z,2.53
2022-10-21T17:47:24.500Z,2.73
2022-10-21T17:49:52.331Z,2.00
2022-10-21T17:52:20.471Z,1.90
2022-10-21T17:54:48.395Z,2.03
2022-10-21T17:57:16.513Z,2.00
2022-10-21T17:59:45.090Z,2.00
2022-10-21T18:02:12.990Z,2.00
2022-10-21T18:04:43.389Z,2.20
2022-10-21T18:07:13.241Z,4.00
2022-10-21T18:09:42.255Z,2.10
2022-10-21T18:12:11.071Z,2.57
2022-10-21T18:14:39.151Z,2.20
2022-10-21T18:17:08.410Z,1.83
2022-10-21T18:19:36.558Z,1.67
2022-10-21T18:22:06.025Z,1.80
2022-10-21T18:24:34.033Z,2.00
2022-10-21T18:27:02.185Z,1.40
2022-10-21T18:29:30.131Z,2.80
2022-10-21T18:31:58.005Z,2.47
2022-10-21T18:34:26.828Z,2.07
2022-10-21T18:36:56.435Z,1.70
2022-10-21T18:39:25.877Z,1.93
2022-10-21T18:41:54.901Z,1.33
2022-10-21T18:44:22.894Z,1.20
2022-10-21T18:46:52.505Z,1.87
2022-10-21T18:49:23.184Z,1.50
2022-10-21T18:51:51.228Z,1.27
2022-10-21T18:54:19.277Z,1.60
2022-10-21T18:56:48.480Z,1.33
2022-10-21T18:59:16.284Z,1.10
2022-10-21T19:01:44.368Z,1.40
2022-10-21T19:06:43.144Z,1.60
2022-10-21T19:09:14.953Z,1.10
2022-10-21T19:11:43.997Z,1.30
2022-10-21T19:14:14.664Z,1.30
2022-10-21T19:16:42.799Z,1.63
2022-10-21T19:19:10.929Z,1.50
2022-10-21T19:21:39.221Z,1.17
2022-10-21T19:24:08.411Z,1.57
2022-10-21T19:26:38.897Z,1.03
2022-10-21T19:29:09.510Z,2.10
2022-10-21T19:31:38.923Z,1.93
2022-10-21T19:34:06.996Z,1.50
2022-10-21T19:36:35.777Z,1.70
2022-10-21T19:39:03.853Z,1.40
2022-10-21T19:41:32.008Z,1.53
2022-10-21T19:44:00.519Z,1.40
2022-10-21T19:46:31.687Z,1.43
2022-10-21T19:49:01.975Z,0.90
2022-10-21T19:51:29.946Z,1.93
2022-10-21T19:53:58.050Z,1.30
2022-10-21T19:56:30.803Z,1.13
2022-10-21T19:59:02.654Z,1.20
2022-10-21T20:01:32.310Z,1.37
2022-10-21T20:04:03.140Z,1.63
2022-10-21T20:06:33.232Z,1.03
2022-10-21T20:09:03.196Z,1.40
2022-10-21T20:11:31.643Z,1.23
2022-10-21T20:13:59.949Z,1.80
2022-10-21T20:16:29.288Z,1.10
2022-10-21T20:18:58.275Z,1.20
2022-10-21T20:21:27.916Z,1.20
2022-10-21T20:23:57.657Z,0.87
2022-10-21T20:26:25.641Z,1.00
2022-10-21T20:28:53.901Z,0.90
2022-10-21T20:31:22.482Z,1.23
2022-10-21T20:33:52.134Z,0.83
2022-10-21T20:36:23.095Z,1.13
2022-10-21T20:38:54.514Z,1.40
